sensor_id;sensor_type;location;lat;lon;timestamp;P1;durP1;ratioP1;P2;durP2;ratioP2
3000;SDS011;1510;51.072;6.678;2022-09-09T00:00:12;915.30;;;835.87;;
3000;SDS011;1510;51.072;6.678;2022-09-09T00:02:40;920.67;;;842.07;;
3000;SDS011;1510;51.072;6.678;2022-09-09T00:05:14;917.40;;;839.23;;
3000;SDS011;1510;51.072;6.678;2022-09-09T00:07:47;915.03;;;836.97;;
3000;SDS011;1510;51.072;6.678;2022-09-09T00:10:17;921.50;;;842.97;;
3000;SDS011;1510;51.072;6.678;2022-09-09T00:12:51;919.87;;;844.17;;
3000;SDS011;1510;51.072;6.678;2022-09-09T00:15:25;927.10;;;853.00;;
3000;SDS011;1510;51.072;6.678;2022-09-09T00:17:58;923.93;;;851.87;;
3000;SDS011;1510;51.072;6.678;2022-09-09T00:20:37;926.17;;;856.63;;
3000;SDS011;1510;51.072;6.678;2022-09-09T00:23:12;913.90;;;844.90;;
3000;SDS011;1510;51.072;6.678;2022-09-09T00:25:45;920.50;;;850.20;;
3000;SDS011;1510;51.072;6.678;2022-09-09T00:28:18;925.50;;;854.90;;
3000;SDS011;1510;51.072;6.678;2022-09-09T00:30:46;916.83;;;847.63;;
3000;SDS011;1510;51.072;6.678;2022-09-09T00:33:15;906.03;;;841.23;;
3000;SDS011;1510;51.072;6.678;2022-09-09T00:35:46;893.53;;;830.60;;
3000;SDS011;1510;51.072;6.678;2022-09-09T00:38:16;900.00;;;836.40;;
3000;SDS011;1510;51.072;6.678;2022-09-09T00:40:49;891.13;;;830.73;;
3000;SDS011;1510;51.072;6.678;2022-09-09T00:43:24;863.27;;;806.47;;
3000;SDS011;1510;51.072;6.678;2022-09-09T00:46:07;844.40;;;789.30;;
3000;SDS011;1510;51.072;6.678;2022-09-09T00:48:47;837.37;;;783.17;;
3000;SDS011;1510;51.072;6.678;2022-09-09T00:51:24;828.27;;;775.07;;
3000;SDS011;1510;51.072;6.678;2022-09-09T00:54:08;797.03;;;746.63;;
3000;SDS011;1510;51.072;6.678;2022-09-09T00:56:46;825.60;;;773.23;;
3000;SDS011;1510;51.072;6.678;2022-09-09T00:59:22;831.63;;;778.93;;
3000;SDS011;1510;51.072;6.678;2022-09-09T01:01:54;834.60;;;780.30;;
3000;SDS011;1510;51.072;6.678;2022-09-09T01:04:23;837.87;;;782.27;;
3000;SDS011;1510;51.072;6.678;2022-09-09T01:06:59;844.03;;;788.57;;
3000;SDS011;1510;51.072;6.678;2022-09-09T01:09:33;864.27;;;805.90;;
3000;SDS011;1510;51.072;6.678;2022-09-09T01:12:11;883.97;;;822.37;;
3000;SDS011;1510;51.072;6.678;2022-09-09T01:14:42;895.07;;;831.27;;
3000;SDS011;1510;51.072;6.678;2022-09-09T01:17:14;900.80;;;834.97;;
3000;SDS011;1510;51.072;6.678;2022-09-09T01:19:47;914.90;;;847.30;;
3000;SDS011;1510;51.072;6.678;2022-09-09T01:22:26;913.53;;;844.30;;
3000;SDS011;1510;51.072;6.678;2022-09-09T01:25:12;907.87;;;839.43;;
3000;SDS011;1510;51.072;6.678;2022-09-09T01:28:03;913.70;;;843.47;;
3000;SDS011;1510;51.072;6.678;2022-09-09T01:30:34;912.40;;;842.67;;
3000;SDS011;1510;51.072;6.678;2022-09-09T01:33:04;911.63;;;841.50;;
3000;SDS011;1510;51.072;6.678;2022-09-09T01:35:39;894.97;;;827.07;;
3000;SDS011;1510;51.072;6.678;2022-09-09T01:38:11;883.40;;;817.77;;
3000;SDS011;1510;51.072;6.678;2022-09-09T01:40:38;875.73;;;814.03;;
3000;SDS011;1510;51.072;6.678;2022-09-09T01:43:07;839.63;;;782.83;;
3000;SDS011;1510;51.072;6.678;2022-09-09T01:45:34;827.17;;;771.47;;
3000;SDS011;1510;51.072;6.678;2022-09-09T01:48:01;822.27;;;767.20;;
3000;SDS011;1510;51.072;6.678;2022-09-09T01:50:28;809.07;;;755.60;;
3000;SDS011;1510;51.072;6.678;2022-09-09T01:52:56;798.83;;;747.00;;
3000;SDS011;1510;51.072;6.678;2022-09-09T01:55:27;787.23;;;735.43;;
3000;SDS011;1510;51.072;6.678;2022-09-09T01:57:57;781.93;;;730.40;;
3000;SDS011;1510;51.072;6.678;2022-09-09T02:00:38;788.03;;;735.17;;
3000;SDS011;1510;51.072;6.678;2022-09-09T02:03:11;795.73;;;743.97;;
3000;SDS011;1510;51.072;6.678;2022-09-09T02:05:49;780.57;;;729.07;;
3000;SDS011;1510;51.072;6.678;2022-09-09T02:08:23;786.90;;;735.57;;
3000;SDS011;1510;51.072;6.678;2022-09-09T02:10:55;770.13;;;719.20;;
3000;SDS011;1510;51.072;6.678;2022-09-09T02:13:27;772.27;;;721.07;;
3000;SDS011;1510;51.072;6.678;2022-09-09T02:16:00;760.70;;;710.53;;
3000;SDS011;1510;51.072;6.678;2022-09-09T02:18:35;762.70;;;713.50;;
3000;SDS011;1510;51.072;6.678;2022-09-09T02:21:04;751.43;;;702.87;;
3000;SDS011;1510;51.072;6.678;2022-09-09T02:23:32;763.20;;;712.57;;
3000;SDS011;1510;51.072;6.678;2022-09-09T02:26:00;760.87;;;710.97;;
3000;SDS011;1510;51.072;6.678;2022-09-09T02:28:30;768.27;;;717.80;;
3000;SDS011;1510;51.072;6.678;2022-09-09T02:31:00;774.50;;;723.90;;
3000;SDS011;1510;51.072;6.678;2022-09-09T02:33:28;773.97;;;722.87;;
3000;SDS011;1510;51.072;6.678;2022-09-09T02:35:59;778.83;;;727.23;;
3000;SDS011;1510;51.072;6.678;2022-09-09T02:38:34;785.77;;;733.57;;
3000;SDS011;1510;51.072;6.678;2022-09-09T02:41:04;783.87;;;730.47;;
3000;SDS011;1510;51.072;6.678;2022-09-09T02:43:32;780.87;;;728.30;;
3000;SDS011;1510;51.072;6.678;2022-09-09T02:46:03;791.70;;;737.57;;
3000;SDS011;1510;51.072;6.678;2022-09-09T02:48:35;803.27;;;748.27;;
3000;SDS011;1510;51.072;6.678;2022-09-09T02:51:13;793.80;;;739.00;;
3000;SDS011;1510;51.072;6.678;2022-09-09T02:53:46;793.73;;;739.67;;
3000;SDS011;1510;51.072;6.678;2022-09-09T02:56:17;785.70;;;732.23;;
3000;SDS011;1510;51.072;6.678;2022-09-09T02:58:48;766.77;;;716.37;;
3000;SDS011;1510;51.072;6.678;2022-09-09T03:01:18;753.30;;;702.90;;
3000;SDS011;1510;51.072;6.678;2022-09-09T03:03:45;759.40;;;708.20;;
3000;SDS011;1510;51.072;6.678;2022-09-09T03:06:11;771.97;;;719.47;;
3000;SDS011;1510;51.072;6.678;2022-09-09T03:08:39;788.63;;;735.03;;
3000;SDS011;1510;51.072;6.678;2022-09-09T03:11:07;792.57;;;737.47;;
3000;SDS011;1510;51.072;6.678;2022-09-09T03:13:35;808.53;;;751.60;;
3000;SDS011;1510;51.072;6.678;2022-09-09T03:16:02;818.03;;;760.17;;
3000;SDS011;1510;51.072;6.678;2022-09-09T03:18:31;817.30;;;759.03;;
3000;SDS011;1510;51.072;6.678;2022-09-09T03:20:59;807.07;;;749.00;;
3000;SDS011;1510;51.072;6.678;2022-09-09T03:23:26;808.13;;;750.07;;
3000;SDS011;1510;51.072;6.678;2022-09-09T03:25:53;820.43;;;763.13;;
3000;SDS011;1510;51.072;6.678;2022-09-09T03:28:22;804.27;;;748.57;;
3000;SDS011;1510;51.072;6.678;2022-09-09T03:30:57;777.87;;;725.40;;
3000;SDS011;1510;51.072;6.678;2022-09-09T03:33:24;773.17;;;722.27;;
3000;SDS011;1510;51.072;6.678;2022-09-09T03:35:53;757.53;;;708.80;;
3000;SDS011;1510;51.072;6.678;2022-09-09T03:38:21;764.07;;;715.00;;
3000;SDS011;1510;51.072;6.678;2022-09-09T03:40:49;763.47;;;714.77;;
3000;SDS011;1510;51.072;6.678;2022-09-09T03:43:17;781.10;;;730.20;;
3000;SDS011;1510;51.072;6.678;2022-09-09T03:45:46;796.07;;;743.50;;
3000;SDS011;1510;51.072;6.678;2022-09-09T03:48:13;792.07;;;739.67;;
3000;SDS011;1510;51.072;6.678;2022-09-09T03:50:43;800.47;;;747.13;;
3000;SDS011;1510;51.072;6.678;2022-09-09T03:53:12;801.57;;;748.00;;
3000;SDS011;1510;51.072;6.678;2022-09-09T03:55:41;807.57;;;753.20;;
3000;SDS011;1510;51.072;6.678;2022-09-09T03:58:10;816.33;;;761.20;;
3000;SDS011;1510;51.072;6.678;2022-09-09T04:00:37;820.10;;;764.60;;
3000;SDS011;1510;51.072;6.678;2022-09-09T04:03:08;799.40;;;746.10;;
3000;SDS011;1510;51.072;6.678;2022-09-09T04:05:35;793.50;;;739.90;;
3000;SDS011;1510;51.072;6.678;2022-09-09T04:08:04;796.43;;;744.03;;
3000;SDS011;1510;51.072;6.678;2022-09-09T04:10:33;768.97;;;719.23;;
3000;SDS011;1510;51.072;6.678;2022-09-09T04:13:01;775.27;;;725.80;;
3000;SDS011;1510;51.072;6.678;2022-09-09T04:15:28;774.67;;;725.00;;
3000;SDS011;1510;51.072;6.678;2022-09-09T04:17:55;766.93;;;717.67;;
3000;SDS011;1510;51.072;6.678;2022-09-09T04:20:22;776.13;;;727.33;;
3000;SDS011;1510;51.072;6.678;2022-09-09T04:22:48;756.43;;;709.70;;
3000;SDS011;1510;51.072;6.678;2022-09-09T04:25:15;740.10;;;695.63;;
3000;SDS011;1510;51.072;6.678;2022-09-09T04:27:43;736.23;;;691.53;;
3000;SDS011;1510;51.072;6.678;2022-09-09T04:30:10;720.80;;;679.10;;
3000;SDS011;1510;51.072;6.678;2022-09-09T04:32:38;701.30;;;662.23;;
3000;SDS011;1510;51.072;6.678;2022-09-09T04:35:05;667.13;;;632.03;;
3000;SDS011;1510;51.072;6.678;2022-09-09T04:37:32;615.00;;;583.10;;
3000;SDS011;1510;51.072;6.678;2022-09-09T04:39:58;597.80;;;568.83;;
3000;SDS011;1510;51.072;6.678;2022-09-09T04:42:26;603.97;;;574.87;;
3000;SDS011;1510;51.072;6.678;2022-09-09T04:44:55;618.30;;;585.90;;
3000;SDS011;1510;51.072;6.678;2022-09-09T04:47:21;671.47;;;635.57;;
3000;SDS011;1510;51.072;6.678;2022-09-09T04:49:48;689.63;;;651.63;;
3000;SDS011;1510;51.072;6.678;2022-09-09T04:52:15;675.37;;;639.17;;
3000;SDS011;1510;51.072;6.678;2022-09-09T04:54:42;659.97;;;624.37;;
3000;SDS011;1510;51.072;6.678;2022-09-09T04:57:10;684.40;;;646.10;;
3000;SDS011;1510;51.072;6.678;2022-09-09T04:59:37;674.87;;;638.17;;
3000;SDS011;1510;51.072;6.678;2022-09-09T05:02:05;672.97;;;637.07;;
3000;SDS011;1510;51.072;6.678;2022-09-09T05:04:41;617.23;;;586.63;;
3000;SDS011;1510;51.072;6.678;2022-09-09T05:07:20;561.03;;;535.90;;
3000;SDS011;1510;51.072;6.678;2022-09-09T05:09:47;541.90;;;518.47;;
3000;SDS011;1510;51.072;6.678;2022-09-09T05:12:14;520.20;;;498.00;;
3000;SDS011;1510;51.072;6.678;2022-09-09T05:14:41;497.97;;;477.77;;
3000;SDS011;1510;51.072;6.678;2022-09-09T05:17:10;509.00;;;487.50;;
3000;SDS011;1510;51.072;6.678;2022-09-09T05:19:38;504.63;;;483.97;;
3000;SDS011;1510;51.072;6.678;2022-09-09T05:22:05;542.27;;;518.83;;
3000;SDS011;1510;51.072;6.678;2022-09-09T05:24:32;501.93;;;481.33;;
3000;SDS011;1510;51.072;6.678;2022-09-09T05:26:59;469.17;;;450.47;;
3000;SDS011;1510;51.072;6.678;2022-09-09T05:29:27;525.77;;;503.10;;
3000;SDS011;1510;51.072;6.678;2022-09-09T05:31:54;545.00;;;520.67;;
3000;SDS011;1510;51.072;6.678;2022-09-09T05:34:22;565.60;;;540.50;;
3000;SDS011;1510;51.072;6.678;2022-09-09T05:40:06;664.87;;;629.97;;
3000;SDS011;1510;51.072;6.678;2022-09-09T05:42:37;665.80;;;630.00;;
3000;SDS011;1510;51.072;6.678;2022-09-09T05:45:04;639.73;;;607.43;;
3000;SDS011;1510;51.072;6.678;2022-09-09T05:47:33;612.60;;;582.37;;
3000;SDS011;1510;51.072;6.678;2022-09-09T05:50:01;548.40;;;523.73;;
3000;SDS011;1510;51.072;6.678;2022-09-09T05:52:29;471.20;;;452.87;;
3000;SDS011;1510;51.072;6.678;2022-09-09T05:55:04;340.80;;;328.87;;
3000;SDS011;1510;51.072;6.678;2022-09-09T05:57:48;186.63;;;180.57;;
3000;SDS011;1510;51.072;6.678;2022-09-09T06:00:16;164.33;;;158.40;;
3000;SDS011;1510;51.072;6.678;2022-09-09T06:02:50;83.87;;;80.37;;
3000;SDS011;1510;51.072;6.678;2022-09-09T06:05:19;70.03;;;67.23;;
3000;SDS011;1510;51.072;6.678;2022-09-09T06:07:51;45.10;;;43.03;;
3000;SDS011;1510;51.072;6.678;2022-09-09T06:10:18;29.50;;;28.00;;
3000;SDS011;1510;51.072;6.678;2022-09-09T06:12:45;24.87;;;23.67;;
3000;SDS011;1510;51.072;6.678;2022-09-09T06:15:15;16.70;;;15.20;;
3000;SDS011;1510;51.072;6.678;2022-09-09T06:17:42;24.97;;;23.30;;
3000;SDS011;1510;51.072;6.678;2022-09-09T06:20:10;20.50;;;19.03;;
3000;SDS011;1510;51.072;6.678;2022-09-09T06:22:40;12.90;;;12.10;;
3000;SDS011;1510;51.072;6.678;2022-09-09T06:25:07;11.10;;;8.80;;
3000;SDS011;1510;51.072;6.678;2022-09-09T06:27:37;9.70;;;8.83;;
3000;SDS011;1510;51.072;6.678;2022-09-09T06:30:08;9.10;;;4.93;;
3000;SDS011;1510;51.072;6.678;2022-09-09T06:32:39;9.10;;;6.90;;
3000;SDS011;1510;51.072;6.678;2022-09-09T06:35:06;9.87;;;4.10;;
3000;SDS011;1510;51.072;6.678;2022-09-09T06:37:36;7.47;;;4.70;;
3000;SDS011;1510;51.072;6.678;2022-09-09T06:40:15;9.27;;;3.13;;
3000;SDS011;1510;51.072;6.678;2022-09-09T06:42:42;9.33;;;2.70;;
3000;SDS011;1510;51.072;6.678;2022-09-09T06:45:11;5.90;;;2.03;;
3000;SDS011;1510;51.072;6.678;2022-09-09T06:47:38;7.80;;;2.37;;
3000;SDS011;1510;51.072;6.678;2022-09-09T06:50:05;6.90;;;1.90;;
3000;SDS011;1510;51.072;6.678;2022-09-09T06:52:32;9.07;;;2.00;;
3000;SDS011;1510;51.072;6.678;2022-09-09T06:54:59;6.80;;;2.00;;
3000;SDS011;1510;51.072;6.678;2022-09-09T06:57:27;5.47;;;1.93;;
3000;SDS011;1510;51.072;6.678;2022-09-09T06:59:54;7.30;;;1.67;;
3000;SDS011;1510;51.072;6.678;2022-09-09T07:02:21;9.00;;;1.93;;
3000;SDS011;1510;51.072;6.678;2022-09-09T07:04:47;10.67;;;1.83;;
3000;SDS011;1510;51.072;6.678;2022-09-09T07:07:17;5.40;;;1.67;;
3000;SDS011;1510;51.072;6.678;2022-09-09T07:09:43;8.10;;;2.27;;
3000;SDS011;1510;51.072;6.678;2022-09-09T07:12:12;4.63;;;1.77;;
3000;SDS011;1510;51.072;6.678;2022-09-09T07:14:45;10.63;;;2.90;;
3000;SDS011;1510;51.072;6.678;2022-09-09T07:17:15;5.77;;;1.43;;
3000;SDS011;1510;51.072;6.678;2022-09-09T07:19:42;8.73;;;1.47;;
3000;SDS011;1510;51.072;6.678;2022-09-09T07:22:09;11.80;;;1.63;;
3000;SDS011;1510;51.072;6.678;2022-09-09T07:24:36;12.40;;;1.73;;
3000;SDS011;1510;51.072;6.678;2022-09-09T07:27:03;6.30;;;1.37;;
3000;SDS011;1510;51.072;6.678;2022-09-09T07:29:30;7.27;;;1.70;;
3000;SDS011;1510;51.072;6.678;2022-09-09T07:32:01;7.07;;;1.80;;
3000;SDS011;1510;51.072;6.678;2022-09-09T07:34:29;6.07;;;1.20;;
3000;SDS011;1510;51.072;6.678;2022-09-09T07:36:55;7.60;;;2.10;;
3000;SDS011;1510;51.072;6.678;2022-09-09T07:39:23;6.97;;;1.77;;
3000;SDS011;1510;51.072;6.678;2022-09-09T07:41:50;4.57;;;1.40;;
3000;SDS011;1510;51.072;6.678;2022-09-09T07:44:18;8.93;;;1.60;;
3000;SDS011;1510;51.072;6.678;2022-09-09T07:46:47;7.63;;;1.70;;
3000;SDS011;1510;51.072;6.678;2022-09-09T07:49:15;5.80;;;1.23;;
3000;SDS011;1510;51.072;6.678;2022-09-09T07:51:43;10.20;;;1.63;;
3000;SDS011;1510;51.072;6.678;2022-09-09T07:54:13;8.37;;;2.27;;
3000;SDS011;1510;51.072;6.678;2022-09-09T07:56:41;6.80;;;1.50;;
3000;SDS011;1510;51.072;6.678;2022-09-09T07:59:08;5.73;;;1.30;;
3000;SDS011;1510;51.072;6.678;2022-09-09T08:01:37;5.33;;;1.80;;
3000;SDS011;1510;51.072;6.678;2022-09-09T08:04:06;6.40;;;1.10;;
3000;SDS011;1510;51.072;6.678;2022-09-09T08:06:36;8.00;;;1.50;;
3000;SDS011;1510;51.072;6.678;2022-09-09T08:09:05;7.80;;;1.33;;
3000;SDS011;1510;51.072;6.678;2022-09-09T08:11:33;8.07;;;1.60;;
3000;SDS011;1510;51.072;6.678;2022-09-09T08:14:01;7.60;;;1.80;;
3000;SDS011;1510;51.072;6.678;2022-09-09T08:16:30;7.00;;;1.77;;
3000;SDS011;1510;51.072;6.678;2022-09-09T08:19:00;10.90;;;1.93;;
3000;SDS011;1510;51.072;6.678;2022-09-09T08:21:27;8.20;;;1.50;;
3000;SDS011;1510;51.072;6.678;2022-09-09T08:23:58;11.47;;;1.40;;
3000;SDS011;1510;51.072;6.678;2022-09-09T08:26:26;11.63;;;1.87;;
3000;SDS011;1510;51.072;6.678;2022-09-09T08:28:55;6.57;;;1.40;;
3000;SDS011;1510;51.072;6.678;2022-09-09T08:31:23;6.23;;;1.40;;
3000;SDS011;1510;51.072;6.678;2022-09-09T08:33:53;5.97;;;1.40;;
3000;SDS011;1510;51.072;6.678;2022-09-09T08:36:21;11.43;;;1.43;;
3000;SDS011;1510;51.072;6.678;2022-09-09T08:38:51;8.63;;;1.77;;
3000;SDS011;1510;51.072;6.678;2022-09-09T08:41:28;6.97;;;1.73;;
3000;SDS011;1510;51.072;6.678;2022-09-09T08:44:12;11.73;;;1.80;;
3000;SDS011;1510;51.072;6.678;2022-09-09T08:46:49;6.70;;;1.50;;
3000;SDS011;1510;51.072;6.678;2022-09-09T08:49:28;8.73;;;1.47;;
3000;SDS011;1510;51.072;6.678;2022-09-09T08:52:06;6.80;;;1.50;;
3000;SDS011;1510;51.072;6.678;2022-09-09T08:54:40;6.70;;;1.63;;
3000;SDS011;1510;51.072;6.678;2022-09-09T08:57:09;6.67;;;1.43;;
3000;SDS011;1510;51.072;6.678;2022-09-09T08:59:40;6.20;;;1.80;;
3000;SDS011;1510;51.072;6.678;2022-09-09T09:02:08;7.17;;;1.33;;
3000;SDS011;1510;51.072;6.678;2022-09-09T09:04:49;9.17;;;1.20;;
3000;SDS011;1510;51.072;6.678;2022-09-09T09:07:28;6.30;;;1.17;;
3000;SDS011;1510;51.072;6.678;2022-09-09T09:10:08;5.07;;;1.50;;
3000;SDS011;1510;51.072;6.678;2022-09-09T09:12:43;6.70;;;1.30;;
3000;SDS011;1510;51.072;6.678;2022-09-09T09:15:14;6.33;;;1.20;;
3000;SDS011;1510;51.072;6.678;2022-09-09T09:17:46;5.60;;;1.23;;
3000;SDS011;1510;51.072;6.678;2022-09-09T09:20:13;5.20;;;1.43;;
3000;SDS011;1510;51.072;6.678;2022-09-09T09:22:44;8.53;;;1.33;;
3000;SDS011;1510;51.072;6.678;2022-09-09T09:25:16;4.70;;;1.27;;
3000;SDS011;1510;51.072;6.678;2022-09-09T09:27:48;5.27;;;1.20;;
3000;SDS011;1510;51.072;6.678;2022-09-09T09:30:25;7.30;;;1.40;;
3000;SDS011;1510;51.072;6.678;2022-09-09T09:33:02;6.77;;;1.10;;
3000;SDS011;1510;51.072;6.678;2022-09-09T09:35:34;5.40;;;1.30;;
3000;SDS011;1510;51.072;6.678;2022-09-09T09:38:01;4.63;;;1.00;;
3000;SDS011;1510;51.072;6.678;2022-09-09T09:40:36;6.30;;;1.30;;
3000;SDS011;1510;51.072;6.678;2022-09-09T09:43:17;5.33;;;1.23;;
3000;SDS011;1510;51.072;6.678;2022-09-09T09:45:46;6.00;;;1.33;;
3000;SDS011;1510;51.072;6.678;2022-09-09T09:48:13;14.37;;;1.33;;
3000;SDS011;1510;51.072;6.678;2022-09-09T09:50:46;6.60;;;1.40;;
3000;SDS011;1510;51.072;6.678;2022-09-09T09:53:19;5.47;;;1.10;;
3000;SDS011;1510;51.072;6.678;2022-09-09T09:55:50;4.83;;;1.27;;
3000;SDS011;1510;51.072;6.678;2022-09-09T09:58:22;4.07;;;0.83;;
3000;SDS011;1510;51.072;6.678;2022-09-09T10:00:51;5.73;;;1.20;;
3000;SDS011;1510;51.072;6.678;2022-09-09T10:03:23;6.50;;;1.17;;
3000;SDS011;1510;51.072;6.678;2022-09-09T10:05:52;3.97;;;0.83;;
3000;SDS011;1510;51.072;6.678;2022-09-09T10:08:21;6.80;;;1.43;;
3000;SDS011;1510;51.072;6.678;2022-09-09T10:10:54;5.00;;;1.00;;
3000;SDS011;1510;51.072;6.678;2022-09-09T10:13:34;5.80;;;1.00;;
3000;SDS011;1510;51.072;6.678;2022-09-09T10:16:14;5.23;;;1.63;;
3000;SDS011;1510;51.072;6.678;2022-09-09T10:18:55;5.23;;;1.00;;
3000;SDS011;1510;51.072;6.678;2022-09-09T10:21:31;5.60;;;1.00;;
3000;SDS011;1510;51.072;6.678;2022-09-09T10:24:15;3.90;;;0.80;;
3000;SDS011;1510;51.072;6.678;2022-09-09T10:27:03;5.40;;;1.10;;
3000;SDS011;1510;51.072;6.678;2022-09-09T10:29:49;5.93;;;1.47;;
3000;SDS011;1510;51.072;6.678;2022-09-09T10:32:33;5.03;;;1.00;;
3000;SDS011;1510;51.072;6.678;2022-09-09T10:35:04;5.37;;;1.03;;
3000;SDS011;1510;51.072;6.678;2022-09-09T10:37:41;6.40;;;1.20;;
3000;SDS011;1510;51.072;6.678;2022-09-09T10:40:25;3.90;;;1.10;;
3000;SDS011;1510;51.072;6.678;2022-09-09T10:42:59;5.70;;;1.47;;
3000;SDS011;1510;51.072;6.678;2022-09-09T10:45:37;5.90;;;1.50;;
3000;SDS011;1510;51.072;6.678;2022-09-09T10:48:14;8.60;;;1.13;;
3000;SDS011;1510;51.072;6.678;2022-09-09T10:50:57;7.70;;;1.10;;
3000;SDS011;1510;51.072;6.678;2022-09-09T10:53:37;5.00;;;1.00;;
3000;SDS011;1510;51.072;6.678;2022-09-09T10:56:17;15.13;;;1.23;;
3000;SDS011;1510;51.072;6.678;2022-09-09T10:58:47;4.60;;;1.07;;
3000;SDS011;1510;51.072;6.678;2022-09-09T11:01:20;5.57;;;1.10;;
3000;SDS011;1510;51.072;6.678;2022-09-09T11:03:52;5.97;;;1.20;;
3000;SDS011;1510;51.072;6.678;2022-09-09T11:06:23;5.03;;;1.20;;
3000;SDS011;1510;51.072;6.678;2022-09-09T11:08:55;5.53;;;1.00;;
3000;SDS011;1510;51.072;6.678;2022-09-09T11:11:27;6.30;;;1.40;;
3000;SDS011;1510;51.072;6.678;2022-09-09T11:13:59;4.73;;;0.80;;
3000;SDS011;1510;51.072;6.678;2022-09-09T11:16:33;6.40;;;1.00;;
3000;SDS011;1510;51.072;6.678;2022-09-09T11:19:10;6.13;;;1.10;;
3000;SDS011;1510;51.072;6.678;2022-09-09T11:21:42;7.47;;;1.27;;
3000;SDS011;1510;51.072;6.678;2022-09-09T11:24:13;6.17;;;1.10;;
3000;SDS011;1510;51.072;6.678;2022-09-09T11:26:44;4.70;;;1.20;;
3000;SDS011;1510;51.072;6.678;2022-09-09T11:29:24;4.40;;;0.97;;
3000;SDS011;1510;51.072;6.678;2022-09-09T11:32:12;8.20;;;1.23;;
3000;SDS011;1510;51.072;6.678;2022-09-09T11:34:54;6.17;;;1.03;;
3000;SDS011;1510;51.072;6.678;2022-09-09T11:37:38;5.33;;;1.43;;
3000;SDS011;1510;51.072;6.678;2022-09-09T11:40:17;4.40;;;1.10;;
3000;SDS011;1510;51.072;6.678;2022-09-09T11:42:47;4.33;;;1.13;;
3000;SDS011;1510;51.072;6.678;2022-09-09T11:45:19;5.13;;;1.20;;
3000;SDS011;1510;51.072;6.678;2022-09-09T11:47:55;5.63;;;1.20;;
3000;SDS011;1510;51.072;6.678;2022-09-09T11:50:27;6.90;;;1.77;;
3000;SDS011;1510;51.072;6.678;2022-09-09T11:53:14;7.23;;;1.80;;
3000;SDS011;1510;51.072;6.678;2022-09-09T11:55:47;5.37;;;1.17;;
3000;SDS011;1510;51.072;6.678;2022-09-09T11:58:25;7.13;;;1.30;;
3000;SDS011;1510;51.072;6.678;2022-09-09T12:00:54;9.53;;;1.30;;
3000;SDS011;1510;51.072;6.678;2022-09-09T12:03:33;6.00;;;1.50;;
3000;SDS011;1510;51.072;6.678;2022-09-09T12:06:09;13.53;;;1.30;;
3000;SDS011;1510;51.072;6.678;2022-09-09T12:08:42;5.97;;;1.07;;
3000;SDS011;1510;51.072;6.678;2022-09-09T12:11:11;6.53;;;1.10;;
3000;SDS011;1510;51.072;6.678;2022-09-09T12:13:38;6.20;;;1.20;;
3000;SDS011;1510;51.072;6.678;2022-09-09T12:16:26;11.50;;;1.40;;
3000;SDS011;1510;51.072;6.678;2022-09-09T12:19:03;8.90;;;1.57;;
3000;SDS011;1510;51.072;6.678;2022-09-09T12:21:34;7.70;;;1.30;;
3000;SDS011;1510;51.072;6.678;2022-09-09T12:24:06;6.77;;;1.40;;
3000;SDS011;1510;51.072;6.678;2022-09-09T12:26:36;6.63;;;1.30;;
3000;SDS011;1510;51.072;6.678;2022-09-09T12:29:09;4.67;;;1.00;;
3000;SDS011;1510;51.072;6.678;2022-09-09T12:31:43;6.93;;;1.30;;
3000;SDS011;1510;51.072;6.678;2022-09-09T12:34:15;5.30;;;1.73;;
3000;SDS011;1510;51.072;6.678;2022-09-09T12:36:51;8.43;;;1.50;;
3000;SDS011;1510;51.072;6.678;2022-09-09T12:39:26;15.53;;;2.53;;
3000;SDS011;1510;51.072;6.678;2022-09-09T12:41:58;8.20;;;1.60;;
3000;SDS011;1510;51.072;6.678;2022-09-09T12:44:28;8.00;;;1.67;;
3000;SDS011;1510;51.072;6.678;2022-09-09T12:46:55;5.40;;;1.30;;
3000;SDS011;1510;51.072;6.678;2022-09-09T12:49:30;5.80;;;1.60;;
3000;SDS011;1510;51.072;6.678;2022-09-09T12:52:01;6.93;;;1.37;;
3000;SDS011;1510;51.072;6.678;2022-09-09T12:54:30;10.40;;;1.30;;
3000;SDS011;1510;51.072;6.678;2022-09-09T12:56:58;4.73;;;1.33;;
3000;SDS011;1510;51.072;6.678;2022-09-09T12:59:25;5.97;;;1.30;;
3000;SDS011;1510;51.072;6.678;2022-09-09T13:02:00;7.20;;;2.10;;
3000;SDS011;1510;51.072;6.678;2022-09-09T13:04:27;5.53;;;1.50;;
3000;SDS011;1510;51.072;6.678;2022-09-09T13:06:55;8.10;;;1.70;;
3000;SDS011;1510;51.072;6.678;2022-09-09T13:09:32;7.43;;;1.60;;
3000;SDS011;1510;51.072;6.678;2022-09-09T13:11:58;8.13;;;1.60;;
3000;SDS011;1510;51.072;6.678;2022-09-09T13:14:27;5.73;;;1.53;;
3000;SDS011;1510;51.072;6.678;2022-09-09T13:16:58;4.90;;;1.40;;
3000;SDS011;1510;51.072;6.678;2022-09-09T13:19:25;5.30;;;1.50;;
3000;SDS011;1510;51.072;6.678;2022-09-09T13:21:57;9.67;;;1.87;;
3000;SDS011;1510;51.072;6.678;2022-09-09T13:24:26;5.30;;;1.47;;
3000;SDS011;1510;51.072;6.678;2022-09-09T13:26:56;10.03;;;1.87;;
3000;SDS011;1510;51.072;6.678;2022-09-09T13:29:27;5.70;;;1.60;;
3000;SDS011;1510;51.072;6.678;2022-09-09T13:32:02;8.03;;;1.90;;
3000;SDS011;1510;51.072;6.678;2022-09-09T13:34:31;5.30;;;1.03;;
3000;SDS011;1510;51.072;6.678;2022-09-09T13:37:02;7.80;;;1.30;;
3000;SDS011;1510;51.072;6.678;2022-09-09T13:39:31;6.47;;;1.30;;
3000;SDS011;1510;51.072;6.678;2022-09-09T13:41:59;8.07;;;1.37;;
3000;SDS011;1510;51.072;6.678;2022-09-09T13:44:28;6.43;;;1.40;;
3000;SDS011;1510;51.072;6.678;2022-09-09T13:47:01;5.03;;;1.30;;
3000;SDS011;1510;51.072;6.678;2022-09-09T13:49:29;4.60;;;1.13;;
3000;SDS011;1510;51.072;6.678;2022-09-09T13:54:46;6.70;;;1.20;;
3000;SDS011;1510;51.072;6.678;2022-09-09T13:57:14;5.43;;;1.07;;
3000;SDS011;1510;51.072;6.678;2022-09-09T13:59:43;10.17;;;1.30;;
3000;SDS011;1510;51.072;6.678;2022-09-09T14:02:10;6.00;;;1.40;;
3000;SDS011;1510;51.072;6.678;2022-09-09T14:04:37;6.03;;;1.50;;
3000;SDS011;1510;51.072;6.678;2022-09-09T14:07:07;4.30;;;1.00;;
3000;SDS011;1510;51.072;6.678;2022-09-09T14:09:38;4.63;;;1.10;;
3000;SDS011;1510;51.072;6.678;2022-09-09T14:12:05;4.73;;;1.17;;
3000;SDS011;1510;51.072;6.678;2022-09-09T14:14:34;6.37;;;1.10;;
3000;SDS011;1510;51.072;6.678;2022-09-09T14:17:01;9.27;;;2.00;;
3000;SDS011;1510;51.072;6.678;2022-09-09T14:19:28;9.57;;;2.10;;
3000;SDS011;1510;51.072;6.678;2022-09-09T14:21:55;9.77;;;1.80;;
3000;SDS011;1510;51.072;6.678;2022-09-09T14:24:22;6.83;;;1.30;;
3000;SDS011;1510;51.072;6.678;2022-09-09T14:26:51;5.93;;;1.07;;
3000;SDS011;1510;51.072;6.678;2022-09-09T14:29:18;4.60;;;1.07;;
3000;SDS011;1510;51.072;6.678;2022-09-09T14:31:44;5.40;;;1.90;;
3000;SDS011;1510;51.072;6.678;2022-09-09T14:34:12;5.80;;;1.37;;
3000;SDS011;1510;51.072;6.678;2022-09-09T14:36:39;8.40;;;2.20;;
3000;SDS011;1510;51.072;6.678;2022-09-09T14:39:07;5.70;;;1.93;;
3000;SDS011;1510;51.072;6.678;2022-09-09T14:41:34;4.97;;;1.50;;
3000;SDS011;1510;51.072;6.678;2022-09-09T14:44:02;5.50;;;3.87;;
3000;SDS011;1510;51.072;6.678;2022-09-09T14:46:28;5.80;;;1.20;;
3000;SDS011;1510;51.072;6.678;2022-09-09T14:48:56;4.00;;;1.00;;
3000;SDS011;1510;51.072;6.678;2022-09-09T14:51:23;9.30;;;1.10;;
3000;SDS011;1510;51.072;6.678;2022-09-09T14:53:52;4.20;;;1.30;;
3000;SDS011;1510;51.072;6.678;2022-09-09T14:56:20;5.90;;;2.93;;
3000;SDS011;1510;51.072;6.678;2022-09-09T14:58:49;10.20;;;9.20;;
3000;SDS011;1510;51.072;6.678;2022-09-09T15:01:19;5.80;;;3.83;;
3000;SDS011;1510;51.072;6.678;2022-09-09T15:03:48;5.10;;;1.60;;
3000;SDS011;1510;51.072;6.678;2022-09-09T15:06:17;4.30;;;1.37;;
3000;SDS011;1510;51.072;6.678;2022-09-09T15:08:44;6.73;;;1.53;;
3000;SDS011;1510;51.072;6.678;2022-09-09T15:11:13;5.07;;;1.00;;
3000;SDS011;1510;51.072;6.678;2022-09-09T15:13:41;4.20;;;0.93;;
3000;SDS011;1510;51.072;6.678;2022-09-09T15:16:09;5.87;;;1.37;;
3000;SDS011;1510;51.072;6.678;2022-09-09T15:18:38;6.60;;;1.27;;
3000;SDS011;1510;51.072;6.678;2022-09-09T15:21:07;7.00;;;1.83;;